createdAt,value
2023-03-11T00:01:43.664Z,1.70
2023-03-11T00:04:10.566Z,1.63
2023-03-11T00:06:37.516Z,1.35
2023-03-11T00:09:05.148Z,1.33
2023-03-11T00:11:32.022Z,1.67
2023-03-11T00:13:58.947Z,1.75
2023-03-11T00:16:25.742Z,1.52
2023-03-11T00:18:52.828Z,2.00
2023-03-11T00:21:20.293Z,2.22
2023-03-11T00:23:47.464Z,1.63
2023-03-11T00:26:14.314Z,2.57
2023-03-11T00:28:41.288Z,1.58
2023-03-11T00:31:12.403Z,2.00
2023-03-11T00:33:39.291Z,1.40
2023-03-11T00:36:07.001Z,1.93
2023-03-11T00:38:33.901Z,1.65
2023-03-11T00:41:01.969Z,1.70
2023-03-11T00:43:31.417Z,1.67
2023-03-11T00:45:58.185Z,1.50
2023-03-11T00:48:25.003Z,1.33
2023-03-11T00:50:51.828Z,1.77
2023-03-11T00:53:18.750Z,1.55
2023-03-11T00:55:45.633Z,1.13
2023-03-11T00:58:13.273Z,1.60
2023-03-11T01:00:46.741Z,1.45
2023-03-11T01:03:13.539Z,1.20
2023-03-11T01:05:40.571Z,1.20
2023-03-11T01:08:07.353Z,2.00
2023-03-11T01:10:35.730Z,1.30
2023-03-11T01:13:03.734Z,1.53
2023-03-11T01:15:35.999Z,1.00
2023-03-11T01:18:04.191Z,1.17
2023-03-11T01:20:32.877Z,1.20
2023-03-11T01:22:59.597Z,1.47
2023-03-11T01:25:28.312Z,1.20
2023-03-11T01:27:56.208Z,0.98
2023-03-11T01:30:24.439Z,1.02
2023-03-11T01:32:52.962Z,1.77
2023-03-11T01:35:22.218Z,1.13
2023-03-11T01:37:48.947Z,1.05
2023-03-11T01:40:37.632Z,1.42
2023-03-11T01:43:45.380Z,1.00
2023-03-11T01:46:18.500Z,1.13
2023-03-11T01:49:01.144Z,1.52
2023-03-11T01:51:37.268Z,1.45
2023-03-11T01:54:10.505Z,1.50
2023-03-11T01:56:39.224Z,1.23
2023-03-11T01:59:08.138Z,1.10
2023-03-11T02:01:38.181Z,1.33
2023-03-11T02:04:05.251Z,1.03
2023-03-11T02:06:33.366Z,0.88
2023-03-11T02:09:01.013Z,1.40
2023-03-11T02:11:30.723Z,1.88
2023-03-11T02:14:03.342Z,1.93
2023-03-11T02:16:30.318Z,1.23
2023-03-11T02:19:04.778Z,1.08
2023-03-11T02:21:34.254Z,1.67
2023-03-11T02:24:29.528Z,1.33
2023-03-11T02:27:07.873Z,1.23
2023-03-11T02:29:35.137Z,1.10
2023-03-11T02:32:06.367Z,1.10
2023-03-11T02:34:36.185Z,1.40
2023-03-11T02:37:08.832Z,1.30
2023-03-11T02:39:44.296Z,1.55
2023-03-11T02:42:19.016Z,1.40
2023-03-11T02:44:49.983Z,1.60
2023-03-11T02:47:17.043Z,1.00
2023-03-11T02:49:44.187Z,0.90
2023-03-11T02:52:10.985Z,1.17
2023-03-11T02:54:37.746Z,1.30
2023-03-11T02:57:04.642Z,0.90
2023-03-11T02:59:31.426Z,1.00
2023-03-11T03:02:00.437Z,0.80
2023-03-11T03:04:27.855Z,1.10
2023-03-11T03:06:54.620Z,1.00
2023-03-11T03:09:21.617Z,0.88
2023-03-11T03:11:48.670Z,1.13
2023-03-11T03:14:15.374Z,0.90
2023-03-11T03:16:42.332Z,0.88
2023-03-11T03:19:09.128Z,1.20
2023-03-11T03:21:35.906Z,1.20
2023-03-11T03:24:03.239Z,1.00
2023-03-11T03:26:30.067Z,1.15
2023-03-11T03:28:56.818Z,1.30
2023-03-11T03:31:23.595Z,0.90
2023-03-11T03:33:50.769Z,1.42
2023-03-11T03:36:17.614Z,1.15
2023-03-11T03:38:49.107Z,1.00
2023-03-11T03:41:16.334Z,1.00
2023-03-11T03:43:44.116Z,1.10
2023-03-11T03:46:11.271Z,1.10
2023-03-11T03:48:42.260Z,2.13
2023-03-11T03:51:12.499Z,1.02
2023-03-11T03:53:46.385Z,0.90
2023-03-11T03:56:16.389Z,1.00
2023-03-11T03:58:44.693Z,1.08
2023-03-11T04:01:12.291Z,1.33
2023-03-11T04:03:40.959Z,1.10
2023-03-11T04:06:22.986Z,0.90
2023-03-11T04:08:55.406Z,0.82
2023-03-11T04:11:26.883Z,0.80
2023-03-11T04:13:54.770Z,1.83
2023-03-11T04:16:24.464Z,1.30
2023-03-11T04:18:55.876Z,1.02
2023-03-11T04:21:22.838Z,1.13
2023-03-11T04:23:49.882Z,0.90
2023-03-11T04:26:19.331Z,0.85
2023-03-11T04:28:46.174Z,1.00
2023-03-11T04:31:14.026Z,0.70
2023-03-11T04:33:40.955Z,1.05
2023-03-11T04:36:10.168Z,1.38
2023-03-11T04:38:38.156Z,1.00
2023-03-11T04:41:07.791Z,0.90
2023-03-11T04:43:37.945Z,0.95
2023-03-11T04:46:04.816Z,1.08
2023-03-11T04:48:32.129Z,0.87
2023-03-11T04:50:59.242Z,1.05
2023-03-11T04:53:27.081Z,1.20
2023-03-11T04:55:54.893Z,1.02
2023-03-11T04:58:21.954Z,1.00
2023-03-11T05:00:48.819Z,1.27
2023-03-11T05:03:16.789Z,1.00
2023-03-11T05:05:44.933Z,0.73
2023-03-11T05:08:12.434Z,0.90
2023-03-11T05:10:41.841Z,0.90
2023-03-11T05:13:09.728Z,0.90
2023-03-11T05:15:38.825Z,0.93
2023-03-11T05:18:06.656Z,0.82
2023-03-11T05:20:34.905Z,1.25
2023-03-11T05:23:02.111Z,0.90
2023-03-11T05:25:31.254Z,0.90
2023-03-11T05:27:58.566Z,1.08
2023-03-11T05:30:25.554Z,0.90
2023-03-11T05:32:52.685Z,1.00
2023-03-11T05:35:20.706Z,1.08
2023-03-11T05:37:49.669Z,1.10
2023-03-11T05:40:18.278Z,0.98
2023-03-11T05:42:45.045Z,0.98
2023-03-11T05:45:14.406Z,1.15
2023-03-11T05:47:43.472Z,1.05
2023-03-11T05:50:13.009Z,1.02
2023-03-11T05:52:41.012Z,1.20
2023-03-11T05:55:09.865Z,1.00
2023-03-11T05:57:39.561Z,1.17
2023-03-11T06:00:12.084Z,1.02
2023-03-11T06:02:44.340Z,1.53
2023-03-11T06:05:15.053Z,0.90
2023-03-11T06:07:43.536Z,1.45
2023-03-11T06:10:11.099Z,0.90
2023-03-11T06:12:38.873Z,1.40
2023-03-11T06:15:26.866Z,1.13
2023-03-11T06:17:54.055Z,1.58
2023-03-11T06:20:20.922Z,1.23
2023-03-11T06:22:51.438Z,1.30
2023-03-11T06:25:21.242Z,1.27
2023-03-11T06:27:53.230Z,1.17
2023-03-11T06:30:21.263Z,1.20
2023-03-11T06:33:10.628Z,1.30
2023-03-11T06:35:37.642Z,1.60
2023-03-11T06:38:04.466Z,1.50
2023-03-11T06:40:31.263Z,1.30
2023-03-11T06:42:57.973Z,1.10
2023-03-11T06:45:26.220Z,1.27
2023-03-11T06:47:53.255Z,1.20
2023-03-11T06:50:24.015Z,0.98
2023-03-11T06:52:51.894Z,1.30
2023-03-11T06:55:18.605Z,1.17
2023-03-11T06:57:45.693Z,1.58
2023-03-11T07:00:13.325Z,1.48
2023-03-11T07:02:43.509Z,1.30
2023-03-11T07:05:13.548Z,1.67
2023-03-11T07:07:40.293Z,1.58
2023-03-11T07:10:08.122Z,1.80
2023-03-11T07:12:35.799Z,1.55
2023-03-11T07:15:04.616Z,2.38
2023-03-11T07:17:34.048Z,1.77
2023-03-11T07:20:02.021Z,1.65
2023-03-11T07:22:30.069Z,1.42
2023-03-11T07:24:56.934Z,1.80
2023-03-11T07:27:23.688Z,1.30
2023-03-11T07:29:50.438Z,1.95
2023-03-11T07:32:17.872Z,1.63
2023-03-11T07:34:44.814Z,1.57
2023-03-11T07:37:11.613Z,1.55
2023-03-11T07:39:39.522Z,1.42
2023-03-11T07:42:06.562Z,1.37
2023-03-11T07:44:36.832Z,1.40
2023-03-11T07:47:05.407Z,1.70
2023-03-11T07:49:33.074Z,1.48
2023-03-11T07:51:59.902Z,1.30
2023-03-11T07:54:26.769Z,1.33
2023-03-11T07:56:53.482Z,0.90
2023-03-11T07:59:20.257Z,1.27
2023-03-11T08:01:47.347Z,1.30
2023-03-11T08:04:16.940Z,1.17
2023-03-11T08:06:46.913Z,1.40
2023-03-11T08:09:13.896Z,1.23
2023-03-11T08:11:41.039Z,1.20
2023-03-11T08:14:07.870Z,0.98
2023-03-11T08:16:34.973Z,1.30
2023-03-11T08:19:01.848Z,1.00
2023-03-11T08:21:31.840Z,1.10
2023-03-11T08:24:00.884Z,1.47
2023-03-11T08:26:28.219Z,1.27
2023-03-11T08:28:56.476Z,1.35
2023-03-11T08:31:29.135Z,1.17
2023-03-11T08:34:01.787Z,1.53
2023-03-11T08:36:29.493Z,1.33
2023-03-11T08:38:56.311Z,1.10
2023-03-11T08:41:23.356Z,1.40
2023-03-11T08:43:52.110Z,1.25
2023-03-11T08:46:33.307Z,1.20
2023-03-11T08:49:01.556Z,1.00
2023-03-11T08:51:31.657Z,1.10
2023-03-11T08:53:59.487Z,1.27
2023-03-11T08:56:27.464Z,1.10
2023-03-11T08:58:54.628Z,1.10
2023-03-11T09:01:22.886Z,1.00
2023-03-11T09:03:49.854Z,0.87
2023-03-11T09:06:17.629Z,0.90
2023-03-11T09:08:45.908Z,1.35
2023-03-11T09:11:14.724Z,1.60
2023-03-11T09:13:42.850Z,1.05
2023-03-11T09:16:18.561Z,1.00
2023-03-11T09:18:45.775Z,1.20
2023-03-11T09:21:13.148Z,1.38
2023-03-11T09:23:43.625Z,0.83
2023-03-11T09:26:11.540Z,1.55
2023-03-11T09:28:38.802Z,0.88
2023-03-11T09:31:05.879Z,1.33
2023-03-11T09:33:37.318Z,1.10
2023-03-11T09:36:04.502Z,0.97
2023-03-11T09:38:31.235Z,0.80
2023-03-11T09:41:19.390Z,1.17
2023-03-11T09:44:07.304Z,1.00
2023-03-11T09:47:00.121Z,1.10
2023-03-11T09:49:48.258Z,1.37
2023-03-11T09:52:27.776Z,1.15
2023-03-11T09:54:56.241Z,1.88
2023-03-11T09:57:26.631Z,1.40
2023-03-11T09:59:54.827Z,0.80
2023-03-11T10:02:26.625Z,1.20
2023-03-11T10:05:02.345Z,1.27
2023-03-11T10:07:40.047Z,1.60
2023-03-11T10:10:11.154Z,1.05
2023-03-11T10:13:06.288Z,1.30
2023-03-11T10:15:52.079Z,2.08
2023-03-11T10:18:49.752Z,1.20
2023-03-11T10:21:19.532Z,1.48
2023-03-11T10:24:14.429Z,1.10
2023-03-11T10:26:54.833Z,1.33
2023-03-11T10:29:30.794Z,1.38
2023-03-11T10:32:17.395Z,1.17
2023-03-11T10:34:51.515Z,0.80
2023-03-11T10:37:49.133Z,1.23
2023-03-11T10:40:34.597Z,1.60
2023-03-11T10:43:06.000Z,1.10
2023-03-11T10:45:43.272Z,1.27
2023-03-11T10:48:17.940Z,0.95
2023-03-11T10:51:12.359Z,1.13
2023-03-11T10:53:52.410Z,1.10
2023-03-11T10:56:37.150Z,1.10
2023-03-11T10:59:06.746Z,1.20
2023-03-11T11:01:34.213Z,1.20
2023-03-11T11:04:02.284Z,1.13
2023-03-11T11:06:32.007Z,1.33
2023-03-11T11:09:19.791Z,1.30
2023-03-11T11:12:13.306Z,1.10
2023-03-11T11:14:51.271Z,1.05
2023-03-11T11:17:29.179Z,1.35
2023-03-11T11:19:58.133Z,1.20
2023-03-11T11:22:25.836Z,1.15
2023-03-11T11:24:55.631Z,1.17
2023-03-11T11:27:22.342Z,1.20
2023-03-11T11:30:09.305Z,1.30
2023-03-11T11:32:37.695Z,1.40
2023-03-11T11:35:10.514Z,1.75
2023-03-11T11:37:41.611Z,1.08
2023-03-11T11:40:19.626Z,1.30
2023-03-11T11:43:05.451Z,1.05
2023-03-11T11:45:45.471Z,1.40
2023-03-11T11:48:45.201Z,1.13
2023-03-11T11:51:27.112Z,0.73
2023-03-11T11:54:10.243Z,1.30
2023-03-11T11:56:37.080Z,1.27
2023-03-11T11:59:13.944Z,1.40
2023-03-11T12:01:49.568Z,1.08
2023-03-11T12:04:46.685Z,1.20
2023-03-11T12:07:42.367Z,1.05
2023-03-11T12:10:27.307Z,1.00
2023-03-11T12:13:23.166Z,1.30
2023-03-11T12:16:13.013Z,1.63
2023-03-11T12:18:49.007Z,1.13
2023-03-11T12:21:42.977Z,1.15
2023-03-11T12:24:33.483Z,1.10
2023-03-11T12:27:04.434Z,1.33
2023-03-11T12:29:35.505Z,1.25
2023-03-11T12:32:03.095Z,1.10
2023-03-11T12:34:34.277Z,1.02
2023-03-11T12:37:05.122Z,0.90
2023-03-11T12:39:34.208Z,1.40
2023-03-11T12:42:20.349Z,1.10
2023-03-11T12:44:48.520Z,1.08
2023-03-11T12:47:28.986Z,1.10
2023-03-11T12:50:16.527Z,1.30
2023-03-11T12:52:54.465Z,1.60
2023-03-11T12:55:30.238Z,1.23
2023-03-11T12:58:11.762Z,1.20
2023-03-11T13:01:02.820Z,1.23
2023-03-11T13:03:47.573Z,1.00
2023-03-11T13:06:34.659Z,1.30
2023-03-11T13:09:01.729Z,1.40
2023-03-11T13:11:34.614Z,1.08
2023-03-11T13:14:23.429Z,1.45
2023-03-11T13:16:50.637Z,1.10
2023-03-11T13:19:26.405Z,1.17
2023-03-11T13:21:54.438Z,1.05
2023-03-11T13:24:22.078Z,1.33
2023-03-11T13:26:53.873Z,1.23
2023-03-11T13:29:23.440Z,1.00
2023-03-11T13:32:11.401Z,1.27
2023-03-11T13:34:40.416Z,0.90
2023-03-11T13:37:27.040Z,0.90
2023-03-11T13:40:31.714Z,1.52
2023-03-11T13:43:04.126Z,1.00
2023-03-11T13:45:32.285Z,1.10
2023-03-11T13:48:18.640Z,1.27
2023-03-11T13:50:53.680Z,1.45
2023-03-11T13:53:29.635Z,1.08
2023-03-11T13:55:56.500Z,1.17
2023-03-11T13:58:25.328Z,1.13
2023-03-11T14:00:55.305Z,1.40
2023-03-11T14:03:25.342Z,0.90
2023-03-11T14:06:06.354Z,1.00
2023-03-11T14:08:35.700Z,1.15
2023-03-11T14:11:14.648Z,1.20
2023-03-11T14:13:47.057Z,1.20
2023-03-11T14:16:30.494Z,0.80
2023-03-11T14:19:04.984Z,1.10
2023-03-11T14:21:31.980Z,1.10
2023-03-11T14:24:00.153Z,1.00
2023-03-11T14:26:35.325Z,1.40
2023-03-11T14:29:08.822Z,0.93
2023-03-11T14:31:38.494Z,1.02
2023-03-11T14:34:18.046Z,1.60
2023-03-11T14:36:54.316Z,0.90
2023-03-11T14:39:33.923Z,1.15
2023-03-11T14:42:09.909Z,0.90
2023-03-11T14:44:40.947Z,1.27
2023-03-11T14:47:19.057Z,1.00
2023-03-11T14:49:47.796Z,1.00
2023-03-11T14:52:24.147Z,1.00
2023-03-11T14:54:53.451Z,1.10
2023-03-11T14:57:46.393Z,1.20
2023-03-11T15:00:21.955Z,1.23
2023-03-11T15:02:56.208Z,1.20
2023-03-11T15:05:32.932Z,1.25
2023-03-11T15:08:02.413Z,1.25
2023-03-11T15:10:29.416Z,1.05
2023-03-11T15:13:08.880Z,0.95
2023-03-11T15:15:35.691Z,1.30
2023-03-11T15:18:02.839Z,1.17
2023-03-11T15:20:32.833Z,4.03
2023-03-11T15:23:07.660Z,1.20
2023-03-11T15:25:38.156Z,1.17
2023-03-11T15:28:36.268Z,1.30
2023-03-11T15:31:32.173Z,1.05
2023-03-11T15:34:32.104Z,1.10
2023-03-11T15:37:21.026Z,1.42
2023-03-11T15:39:51.169Z,1.20
2023-03-11T15:42:26.200Z,1.00
2023-03-11T15:45:25.107Z,0.98
2023-03-11T15:47:51.875Z,1.30
2023-03-11T15:50:25.007Z,1.35
2023-03-11T15:52:54.358Z,1.30
2023-03-11T15:55:21.354Z,1.30
2023-03-11T15:57:49.356Z,1.55
2023-03-11T16:00:25.343Z,1.20
2023-03-11T16:02:52.311Z,1.10
2023-03-11T16:05:22.097Z,1.10
2023-03-11T16:07:49.290Z,1.10
2023-03-11T16:10:18.780Z,1.10
2023-03-11T16:12:46.006Z,1.00
2023-03-11T16:15:32.092Z,0.80
2023-03-11T16:18:04.587Z,0.70
2023-03-11T16:20:39.054Z,1.03
2023-03-11T16:23:10.070Z,1.00
2023-03-11T16:25:39.844Z,1.15
2023-03-11T16:28:07.293Z,1.00
2023-03-11T16:30:35.090Z,1.05
2023-03-11T16:33:04.488Z,1.20
2023-03-11T16:35:32.620Z,1.30
2023-03-11T16:37:59.551Z,1.10
2023-03-11T16:40:28.362Z,1.10
2023-03-11T16:43:00.154Z,1.30
2023-03-11T16:45:27.209Z,1.50
2023-03-11T16:47:54.007Z,1.30
2023-03-11T16:50:21.012Z,1.00
2023-03-11T16:52:47.987Z,1.38
2023-03-11T16:55:14.727Z,1.40
2023-03-11T16:57:41.494Z,1.57
2023-03-11T17:00:09.850Z,2.55
2023-03-11T17:02:37.783Z,1.60
2023-03-11T17:05:05.903Z,1.30
2023-03-11T17:07:33.499Z,1.85
2023-03-11T17:10:00.578Z,2.10
2023-03-11T17:12:28.296Z,1.50
2023-03-11T17:14:55.346Z,1.80
2023-03-11T17:17:22.392Z,1.60
2023-03-11T17:19:49.215Z,1.90
2023-03-11T17:22:16.333Z,2.63
2023-03-11T17:24:43.487Z,1.80
2023-03-11T17:27:10.245Z,2.25
2023-03-11T17:29:37.076Z,1.95
2023-03-11T17:32:06.011Z,2.20
2023-03-11T17:34:32.867Z,2.83
2023-03-11T17:36:59.682Z,2.25
2023-03-11T17:39:26.527Z,2.00
2023-03-11T17:41:53.334Z,2.40
2023-03-11T17:44:20.041Z,1.70
2023-03-11T17:46:46.807Z,2.43
2023-03-11T17:49:15.102Z,1.52
2023-03-11T17:51:41.990Z,1.77
2023-03-11T17:54:08.792Z,2.00
2023-03-11T17:56:35.603Z,2.20
2023-03-11T17:59:02.363Z,2.63
2023-03-11T18:01:29.792Z,2.53
2023-03-11T18:03:56.854Z,2.47
2023-03-11T18:06:24.773Z,2.58
2023-03-11T18:08:51.557Z,2.90
2023-03-11T18:11:21.481Z,3.17
2023-03-11T18:13:48.675Z,2.80
2023-03-11T18:16:21.901Z,3.35
2023-03-11T18:18:49.195Z,3.25
2023-03-11T18:21:18.810Z,2.80
2023-03-11T18:23:45.714Z,3.40
2023-03-11T18:26:14.959Z,4.65
2023-03-11T18:28:42.420Z,5.88
2023-03-11T18:31:21.031Z,5.10
2023-03-11T18:33:50.506Z,5.68
2023-03-11T18:36:27.061Z,5.40
2023-03-11T18:38:56.234Z,5.30
2023-03-11T18:41:24.299Z,5.75
2023-03-11T18:43:59.587Z,7.78
2023-03-11T18:46:31.407Z,5.97
2023-03-11T18:48:59.412Z,6.10
2023-03-11T18:51:27.805Z,5.35
2023-03-11T18:53:54.827Z,5.55
2023-03-11T18:56:21.649Z,5.78
2023-03-11T18:58:48.550Z,5.20
2023-03-11T19:01:17.584Z,6.23
2023-03-11T19:03:48.745Z,6.80
2023-03-11T19:06:16.523Z,10.30
2023-03-11T19:08:43.639Z,10.10
2023-03-11T19:11:16.142Z,11.50
2023-03-11T19:13:47.746Z,10.90
2023-03-11T19:16:18.345Z,11.35
2023-03-11T19:18:45.789Z,12.93
2023-03-11T19:21:14.069Z,11.60
2023-03-11T19:23:40.924Z,10.65
2023-03-11T19:26:07.959Z,10.27
2023-03-11T19:28:35.435Z,9.68
2023-03-11T19:31:03.122Z,8.07
2023-03-11T19:33:29.997Z,9.25
2023-03-11T19:35:59.167Z,8.68
2023-03-11T19:38:27.161Z,8.10
2023-03-11T19:41:05.241Z,9.70
2023-03-11T19:43:32.666Z,12.73
2023-03-11T19:45:59.621Z,11.73
2023-03-11T19:48:26.492Z,11.82
2023-03-11T19:50:53.745Z,11.00
2023-03-11T19:53:22.460Z,8.77
2023-03-11T19:55:52.243Z,8.85
2023-03-11T19:58:19.867Z,7.80
2023-03-11T20:00:46.662Z,7.45
2023-03-11T20:03:14.788Z,7.77
2023-03-11T20:05:44.462Z,8.52
2023-03-11T20:08:14.086Z,9.25
2023-03-11T20:10:43.517Z,10.02
2023-03-11T20:13:10.706Z,11.07
2023-03-11T20:15:37.964Z,11.53
2023-03-11T20:18:06.124Z,12.40
2023-03-11T20:20:34.236Z,13.65
2023-03-11T20:23:02.165Z,13.50
2023-03-11T20:25:32.188Z,15.98
2023-03-11T20:28:00.573Z,16.07
2023-03-11T20:30:28.615Z,16.42
2023-03-11T20:32:55.695Z,16.73
2023-03-11T20:35:23.137Z,16.65
2023-03-11T20:37:50.184Z,15.07
2023-03-11T20:40:18.479Z,16.20
2023-03-11T20:42:47.220Z,14.88
2023-03-11T20:45:21.627Z,14.07
2023-03-11T20:47:50.067Z,12.27
2023-03-11T20:50:17.575Z,12.15
2023-03-11T20:52:44.657Z,12.73
2023-03-11T20:55:12.122Z,13.20
2023-03-11T20:57:39.408Z,14.10
2023-03-11T21:00:12.231Z,13.77
2023-03-11T21:02:40.624Z,14.23
2023-03-11T21:05:08.741Z,13.70
2023-03-11T21:07:35.815Z,14.88
2023-03-11T21:10:05.011Z,17.98
2023-03-11T21:12:31.956Z,18.43
2023-03-11T21:14:58.855Z,15.05
2023-03-11T21:17:26.026Z,13.27
2023-03-11T21:19:52.812Z,7.80
2023-03-11T21:22:19.659Z,6.60
2023-03-11T21:24:50.430Z,7.25
2023-03-11T21:27:17.198Z,6.60
2023-03-11T21:29:43.938Z,6.75
2023-03-11T21:32:10.772Z,7.97
2023-03-11T21:34:37.764Z,6.88
2023-03-11T21:37:04.610Z,7.03
2023-03-11T21:39:31.478Z,6.20
2023-03-11T21:41:58.367Z,6.22
2023-03-11T21:44:25.246Z,6.47
2023-03-11T21:46:52.235Z,4.97
2023-03-11T21:49:19.114Z,5.28
2023-03-11T21:51:46.149Z,5.72
2023-03-11T21:54:13.113Z,4.13
2023-03-11T21:56:40.093Z,5.32
2023-03-11T21:59:07.385Z,4.88
2023-03-11T22:01:34.873Z,5.13
2023-03-11T22:04:02.233Z,4.75
2023-03-11T22:06:30.896Z,7.33
2023-03-11T22:08:57.787Z,6.25
2023-03-11T22:11:24.700Z,5.72
2023-03-11T22:13:54.078Z,6.55
2023-03-11T22:16:22.266Z,6.57
2023-03-11T22:18:51.104Z,5.53
2023-03-11T22:21:18.606Z,5.95
2023-03-11T22:23:45.492Z,5.60
2023-03-11T22:26:12.524Z,5.63
2023-03-11T22:28:39.259Z,5.03
2023-03-11T22:31:08.784Z,4.55
2023-03-11T22:33:35.679Z,4.07
2023-03-11T22:36:04.694Z,4.40
2023-03-11T22:38:32.554Z,3.83
2023-03-11T22:41:00.340Z,3.83
2023-03-11T22:43:27.424Z,4.65
2023-03-11T22:45:54.273Z,4.00
2023-03-11T22:48:21.079Z,5.22
2023-03-11T22:50:48.346Z,4.88
2023-03-11T22:53:15.587Z,5.32
2023-03-11T22:55:45.368Z,6.17
2023-03-11T22:58:12.465Z,5.70
2023-03-11T23:00:39.428Z,5.82
2023-03-11T23:03:06.949Z,6.40
2023-03-11T23:05:40.640Z,6.03
2023-03-11T23:08:12.407Z,5.90
2023-03-11T23:10:44.829Z,6.53
2023-03-11T23:13:11.777Z,7.00
2023-03-11T23:15:41.232Z,6.65
2023-03-11T23:18:08.104Z,13.68
2023-03-11T23:20:36.605Z,17.60
2023-03-11T23:23:03.944Z,15.80
2023-03-11T23:25:31.459Z,13.40
2023-03-11T23:27:58.303Z,12.98
2023-03-11T23:30:25.065Z,10.48
2023-03-11T23:32:51.990Z,9.83
2023-03-11T23:35:18.757Z,9.40
2023-03-11T23:37:50.069Z,7.97
2023-03-11T23:40:17.414Z,8.68
2023-03-11T23:42:44.320Z,7.07
2023-03-11T23:45:11.411Z,7.28
2023-03-11T23:47:38.167Z,6.57
2023-03-11T23:50:05.616Z,6.83
2023-03-11T23:52:33.032Z,8.88
2023-03-11T23:54:59.979Z,9.00
2023-03-11T23:57:26.721Z,8.13
2023-03-11T23:59:53.470Z,8.68
